createdAt,value
2023-05-17T00:01:16.916Z,99584.12
2023-05-17T00:03:44.518Z,99585.67
2023-05-17T00:06:12.271Z,99586.48
2023-05-17T00:08:40.210Z,99588.30
2023-05-17T00:11:07.770Z,99586.58
2023-05-17T00:13:35.938Z,99586.20
2023-05-17T00:16:06.064Z,99587.71
2023-05-17T00:18:33.895Z,99587.02
2023-05-17T00:21:02.095Z,99587.88
2023-05-17T00:23:29.532Z,99587.61
2023-05-17T00:25:57.110Z,99588.59
2023-05-17T00:28:24.702Z,99590.67
2023-05-17T00:30:52.134Z,99589.98
2023-05-17T00:33:19.692Z,99585.77
2023-05-17T00:35:47.553Z,99593.86
2023-05-17T00:38:15.114Z,99592.48
2023-05-17T00:40:42.567Z,99591.98
2023-05-17T00:43:10.024Z,99590.61
2023-05-17T00:45:37.490Z,99592.05
2023-05-17T00:48:06.203Z,99592.09
2023-05-17T00:50:33.833Z,99591.90
2023-05-17T00:53:01.501Z,99591.61
2023-05-17T00:55:29.180Z,99593.63
2023-05-17T00:57:57.062Z,99593.27
2023-05-17T01:00:24.471Z,99594.23
2023-05-17T01:02:52.072Z,99589.55
2023-05-17T01:05:19.591Z,99589.24
2023-05-17T01:07:48.477Z,99593.94
2023-05-17T01:10:16.349Z,99594.02
2023-05-17T01:12:56.511Z,99590.27
2023-05-17T01:15:29.326Z,99588.23
2023-05-17T01:18:21.022Z,99587.56
2023-05-17T01:20:48.870Z,99585.17
2023-05-17T01:23:35.070Z,99582.13
2023-05-17T01:26:11.028Z,99582.35
2023-05-17T01:28:38.909Z,99580.11
2023-05-17T01:31:06.453Z,99582.30
2023-05-17T01:33:34.105Z,99583.77
2023-05-17T01:36:01.919Z,99585.27
2023-05-17T01:38:29.640Z,99582.64
2023-05-17T01:40:57.235Z,99581.63
2023-05-17T01:43:49.948Z,99580.92
2023-05-17T01:46:58.977Z,99584.98
2023-05-17T01:49:33.090Z,99585.30
2023-05-17T01:52:12.738Z,99588.94
2023-05-17T01:55:25.484Z,99588.85
2023-05-17T01:57:54.294Z,99587.42
2023-05-17T02:00:22.734Z,99591.20
2023-05-17T02:02:51.837Z,99593.92
2023-05-17T02:05:20.330Z,99591.19
2023-05-17T02:07:48.063Z,99592.80
2023-05-17T02:10:15.733Z,99589.89
2023-05-17T02:12:43.406Z,99593.05
2023-05-17T02:15:12.402Z,99591.92
2023-05-17T02:17:41.066Z,99593.27
2023-05-17T02:20:09.438Z,99599.77
2023-05-17T02:22:37.344Z,99597.84
2023-05-17T02:25:06.265Z,99598.79
2023-05-17T02:27:33.804Z,99602.54
2023-05-17T02:30:02.465Z,99601.97
2023-05-17T02:32:31.231Z,99602.86
2023-05-17T02:34:58.911Z,99608.79
2023-05-17T02:37:26.659Z,99615.33
2023-05-17T02:39:54.009Z,99618.81
2023-05-17T02:42:21.780Z,99623.33
2023-05-17T02:44:53.112Z,99624.48
2023-05-17T02:47:23.932Z,99628.09
2023-05-17T02:49:52.128Z,99631.98
2023-05-17T02:52:20.073Z,99632.86
2023-05-17T02:54:48.400Z,99632.13
2023-05-17T02:57:16.299Z,99638.92
2023-05-17T02:59:44.209Z,99637.64
2023-05-17T03:02:11.949Z,99637.90
2023-05-17T03:04:39.813Z,99642.73
2023-05-17T03:07:08.940Z,99646.88
2023-05-17T03:09:37.821Z,99654.46
2023-05-17T03:12:06.655Z,99654.18
2023-05-17T03:14:34.774Z,99655.60
2023-05-17T03:17:02.564Z,99661.31
2023-05-17T03:19:31.166Z,99662.48
2023-05-17T03:21:58.899Z,99665.31
2023-05-17T03:24:26.966Z,99667.88
2023-05-17T03:26:54.899Z,99669.94
2023-05-17T03:29:23.108Z,99676.53
2023-05-17T03:31:51.693Z,99678.40
2023-05-17T03:34:19.554Z,99680.46
2023-05-17T03:36:47.219Z,99684.24
2023-05-17T03:39:15.087Z,99689.09
2023-05-17T03:41:43.273Z,99691.48
2023-05-17T03:44:11.331Z,99693.33
2023-05-17T03:46:39.453Z,99693.81
2023-05-17T03:49:07.210Z,99689.47
2023-05-17T03:51:35.747Z,99693.88
2023-05-17T03:54:03.554Z,99698.19
2023-05-17T03:56:31.917Z,99695.27
2023-05-17T03:58:59.413Z,99693.85
2023-05-17T04:01:27.726Z,99697.94
2023-05-17T04:03:55.333Z,99700.21
2023-05-17T04:06:23.367Z,99698.52
2023-05-17T04:08:51.634Z,99703.33
2023-05-17T04:11:24.217Z,99707.34
2023-05-17T04:13:52.180Z,99703.42
2023-05-17T04:16:20.227Z,99706.70
2023-05-17T04:18:48.008Z,99709.35
2023-05-17T04:21:15.995Z,99709.56
2023-05-17T04:23:43.784Z,99710.23
2023-05-17T04:26:11.630Z,99707.77
2023-05-17T04:28:40.510Z,99709.46
2023-05-17T04:31:08.841Z,99708.16
2023-05-17T04:33:37.337Z,99711.73
2023-05-17T04:36:06.720Z,99715.17
2023-05-17T04:38:35.144Z,99714.92
2023-05-17T04:41:04.844Z,99717.17
2023-05-17T04:43:33.869Z,99715.98
2023-05-17T04:46:01.747Z,99718.38
2023-05-17T04:48:31.463Z,99718.52
2023-05-17T04:51:02.914Z,99721.03
2023-05-17T04:53:30.918Z,99724.25
2023-05-17T04:55:59.428Z,99725.30
2023-05-17T04:58:27.081Z,99727.25
2023-05-17T05:00:57.103Z,99732.67
2023-05-17T05:03:24.930Z,99728.09
2023-05-17T05:05:53.913Z,99727.05
2023-05-17T05:08:21.829Z,99727.14
2023-05-17T05:10:49.393Z,99728.93
2023-05-17T05:13:17.764Z,99726.60
2023-05-17T05:15:45.871Z,99725.05
2023-05-17T05:18:13.573Z,99725.18
2023-05-17T05:20:41.970Z,99729.73
2023-05-17T05:23:10.557Z,99734.62
2023-05-17T05:25:38.266Z,99731.46
2023-05-17T05:28:08.041Z,99735.11
2023-05-17T05:30:36.818Z,99739.06
2023-05-17T05:33:05.319Z,99737.47
2023-05-17T05:35:33.066Z,99741.25
2023-05-17T05:38:00.698Z,99741.60
2023-05-17T05:40:28.698Z,99742.41
2023-05-17T05:42:56.668Z,99743.13
2023-05-17T05:45:24.139Z,99741.48
2023-05-17T05:47:54.247Z,99740.86
2023-05-17T05:50:22.038Z,99745.52
2023-05-17T05:52:49.903Z,99745.31
2023-05-17T05:55:17.594Z,99744.94
2023-05-17T05:57:46.113Z,99740.52
2023-05-17T06:00:14.397Z,99744.23
2023-05-17T06:02:41.997Z,99745.14
2023-05-17T06:05:09.816Z,99748.27
2023-05-17T06:07:37.376Z,99748.38
2023-05-17T06:10:05.496Z,99747.27
2023-05-17T06:12:35.680Z,99744.50
2023-05-17T06:15:04.215Z,99743.86
2023-05-17T06:17:31.863Z,99742.70
2023-05-17T06:19:59.516Z,99738.14
2023-05-17T06:22:27.105Z,99737.67
2023-05-17T06:24:54.801Z,99736.23
2023-05-17T06:27:22.337Z,99734.14
2023-05-17T06:29:50.125Z,99736.63
2023-05-17T06:32:17.675Z,99732.73
2023-05-17T06:34:45.441Z,99729.80
2023-05-17T06:37:13.511Z,99731.83
2023-05-17T06:39:41.150Z,99729.29
2023-05-17T06:42:09.179Z,99734.36
2023-05-17T06:44:36.729Z,99731.29
2023-05-17T06:47:04.657Z,99733.73
2023-05-17T06:49:32.284Z,99737.55
2023-05-17T06:52:03.778Z,99731.95
2023-05-17T06:54:31.851Z,99736.10
2023-05-17T06:57:03.258Z,99734.20
2023-05-17T06:59:31.165Z,99733.01
2023-05-17T07:02:00.897Z,99735.81
2023-05-17T07:04:28.378Z,99733.93
2023-05-17T07:06:57.688Z,99731.61
2023-05-17T07:09:25.398Z,99732.04
2023-05-17T07:11:53.760Z,99732.58
2023-05-17T07:14:21.433Z,99731.77
2023-05-17T07:16:49.609Z,99733.95
2023-05-17T07:19:17.386Z,99728.81
2023-05-17T07:21:45.700Z,99729.23
2023-05-17T07:24:13.210Z,99732.80
2023-05-17T07:26:40.777Z,99727.16
2023-05-17T07:29:08.225Z,99728.96
2023-05-17T07:31:38.504Z,99732.13
2023-05-17T07:34:06.307Z,99728.39
2023-05-17T07:36:34.408Z,99725.80
2023-05-17T07:39:02.352Z,99727.92
2023-05-17T07:41:30.015Z,99727.48
2023-05-17T07:43:57.679Z,99723.22
2023-05-17T07:46:26.048Z,99724.15
2023-05-17T07:48:55.840Z,99729.72
2023-05-17T07:51:26.445Z,99730.97
2023-05-17T07:53:54.269Z,99727.14
2023-05-17T07:56:22.034Z,99724.26
2023-05-17T07:58:49.804Z,99719.34
2023-05-17T08:01:17.482Z,99725.32
2023-05-17T08:03:51.220Z,99719.02
2023-05-17T08:06:19.055Z,99715.39
2023-05-17T08:08:46.890Z,99712.81
2023-05-17T08:11:14.862Z,99709.81
2023-05-17T08:13:42.928Z,99716.14
2023-05-17T08:16:14.181Z,99714.84
2023-05-17T08:18:43.837Z,99715.02
2023-05-17T08:21:11.813Z,99718.97
2023-05-17T08:23:40.993Z,99714.63
2023-05-17T08:26:08.401Z,99713.40
2023-05-17T08:28:36.196Z,99715.64
2023-05-17T08:31:04.734Z,99714.21
2023-05-17T08:33:33.961Z,99716.41
2023-05-17T08:36:05.543Z,99721.19
2023-05-17T08:38:34.652Z,99714.77
2023-05-17T08:41:03.513Z,99712.20
2023-05-17T08:43:33.908Z,99713.85
2023-05-17T08:46:04.051Z,99712.73
2023-05-17T08:48:31.729Z,99709.41
2023-05-17T08:51:00.437Z,99713.47
2023-05-17T08:53:28.304Z,99707.61
2023-05-17T08:55:59.410Z,99706.45
2023-05-17T08:58:41.081Z,99699.48
2023-05-17T09:01:19.920Z,99702.58
2023-05-17T09:03:51.295Z,99700.24
2023-05-17T09:06:21.814Z,99696.70
2023-05-17T09:08:53.205Z,99699.73
2023-05-17T09:11:28.821Z,99705.25
2023-05-17T09:14:03.307Z,99701.01
2023-05-17T09:16:35.410Z,99697.48
2023-05-17T09:19:03.908Z,99696.39
2023-05-17T09:21:31.848Z,99693.05
2023-05-17T09:24:06.264Z,99691.64
2023-05-17T09:26:40.629Z,99691.61
2023-05-17T09:29:17.945Z,99690.98
2023-05-17T09:31:45.696Z,99692.54
2023-05-17T09:34:13.124Z,99692.16
2023-05-17T09:36:42.981Z,99695.56
2023-05-17T09:39:14.829Z,99701.34
2023-05-17T09:41:48.263Z,99696.08
2023-05-17T09:44:15.811Z,99694.79
2023-05-17T09:46:45.926Z,99692.54
2023-05-17T09:49:14.266Z,99691.80
2023-05-17T09:51:46.171Z,99688.27
2023-05-17T09:54:13.603Z,99688.15
2023-05-17T09:56:40.575Z,99687.59
2023-05-17T09:59:13.328Z,99680.83
2023-05-17T10:01:41.707Z,99680.63
2023-05-17T10:04:12.789Z,99678.95
2023-05-17T10:06:46.493Z,99672.70
2023-05-17T10:09:19.024Z,99669.71
2023-05-17T10:11:46.940Z,99667.14
2023-05-17T10:14:19.446Z,99665.77
2023-05-17T10:16:47.333Z,99665.38
2023-05-17T10:19:15.293Z,99663.26
2023-05-17T10:21:43.603Z,99659.52
2023-05-17T10:24:11.389Z,99654.30
2023-05-17T10:26:38.911Z,99653.67
2023-05-17T10:29:06.479Z,99655.77
2023-05-17T10:31:34.432Z,99649.33
2023-05-17T10:34:02.470Z,99648.73
2023-05-17T10:36:30.415Z,99650.46
2023-05-17T10:38:59.197Z,99647.14
2023-05-17T10:41:28.082Z,99649.94
2023-05-17T10:43:56.113Z,99647.63
2023-05-17T10:46:23.979Z,99638.81
2023-05-17T10:48:52.850Z,99636.64
2023-05-17T10:51:24.766Z,99633.40
2023-05-17T10:54:07.995Z,99627.48
2023-05-17T10:56:35.610Z,99622.91
2023-05-17T10:59:16.672Z,99623.04
2023-05-17T11:01:59.951Z,99619.33
2023-05-17T11:04:38.994Z,99616.52
2023-05-17T11:07:17.580Z,99612.15
2023-05-17T11:09:46.143Z,99614.66
2023-05-17T11:12:14.444Z,99606.30
2023-05-17T11:14:48.639Z,99605.35
2023-05-17T11:17:18.184Z,99601.14
2023-05-17T11:19:55.408Z,99597.42
2023-05-17T11:23:02.718Z,99596.58
2023-05-17T11:25:37.241Z,99598.69
2023-05-17T11:28:23.234Z,99595.18
2023-05-17T11:30:54.285Z,99583.41
2023-05-17T11:33:33.169Z,99582.27
2023-05-17T11:36:05.704Z,99581.90
2023-05-17T11:38:34.822Z,99576.95
2023-05-17T11:41:27.008Z,99576.98
2023-05-17T11:43:55.698Z,99574.38
2023-05-17T11:46:24.327Z,99571.83
2023-05-17T11:48:53.364Z,99569.18
2023-05-17T11:51:23.854Z,99563.08
2023-05-17T11:53:55.763Z,99568.30
2023-05-17T11:56:35.512Z,99562.70
2023-05-17T11:59:10.723Z,99560.27
2023-05-17T12:01:46.424Z,99562.93
2023-05-17T12:04:14.179Z,99546.75
2023-05-17T12:06:41.831Z,99545.63
2023-05-17T12:09:11.527Z,99543.92
2023-05-17T12:11:39.807Z,99550.63
2023-05-17T12:14:07.732Z,99542.80
2023-05-17T12:16:39.059Z,99540.81
2023-05-17T12:19:07.946Z,99541.27
2023-05-17T12:21:35.570Z,99541.37
2023-05-17T12:24:03.434Z,99539.76
2023-05-17T12:26:31.204Z,99540.25
2023-05-17T12:29:00.187Z,99539.04
2023-05-17T12:31:42.032Z,99539.39
2023-05-17T12:34:09.701Z,99540.31
2023-05-17T12:36:37.812Z,99538.37
2023-05-17T12:39:08.957Z,99535.46
2023-05-17T12:41:37.540Z,99538.30
2023-05-17T12:46:41.296Z,99533.64
2023-05-17T12:49:09.337Z,99534.09
2023-05-17T12:51:44.928Z,99533.26
2023-05-17T12:54:16.735Z,99538.93
2023-05-17T12:56:45.039Z,99534.84
2023-05-17T12:59:17.554Z,99531.22
2023-05-17T13:01:49.553Z,99531.99
2023-05-17T13:04:17.972Z,99532.87
2023-05-17T13:06:52.254Z,99530.89
2023-05-17T13:09:22.143Z,99531.45
2023-05-17T13:11:54.128Z,99534.06
2023-05-17T13:14:52.041Z,99532.42
2023-05-17T13:17:27.574Z,99532.80
2023-05-17T13:19:58.184Z,99529.05
2023-05-17T13:22:26.320Z,99529.12
2023-05-17T13:24:54.526Z,99526.52
2023-05-17T13:27:22.288Z,99527.09
2023-05-17T13:29:49.892Z,99524.02
2023-05-17T13:32:17.509Z,99525.79
2023-05-17T13:34:45.177Z,99528.81
2023-05-17T13:37:13.106Z,99531.16
2023-05-17T13:39:41.896Z,99527.42
2023-05-17T13:42:11.219Z,99524.48
2023-05-17T13:44:39.241Z,99525.94
2023-05-17T13:47:07.192Z,99526.86
2023-05-17T13:49:34.730Z,99528.91
2023-05-17T13:52:02.497Z,99522.91
2023-05-17T13:54:29.974Z,99520.84
2023-05-17T13:56:58.013Z,99522.41
2023-05-17T13:59:25.572Z,99522.29
2023-05-17T14:01:54.007Z,99521.42
2023-05-17T14:04:21.712Z,99513.73
2023-05-17T14:06:50.691Z,99515.79
2023-05-17T14:09:20.752Z,99512.98
2023-05-17T14:11:48.697Z,99512.16
2023-05-17T14:14:16.459Z,99513.28
2023-05-17T14:16:44.246Z,99510.74
2023-05-17T14:19:12.119Z,99508.23
2023-05-17T14:21:40.055Z,99507.66
2023-05-17T14:24:07.620Z,99504.42
2023-05-17T14:26:35.315Z,99504.32
2023-05-17T14:29:02.589Z,99503.57
2023-05-17T14:31:30.527Z,99503.41
2023-05-17T14:33:58.980Z,99505.65
2023-05-17T14:36:26.852Z,99504.56
2023-05-17T14:38:54.506Z,99503.02
2023-05-17T14:41:22.829Z,99504.85
2023-05-17T14:43:50.344Z,99503.29
2023-05-17T14:46:18.104Z,99499.00
2023-05-17T14:48:45.582Z,99497.22
2023-05-17T14:51:13.743Z,99496.00
2023-05-17T14:53:41.233Z,99492.55
2023-05-17T14:56:10.329Z,99496.54
2023-05-17T14:58:38.363Z,99497.39
2023-05-17T15:01:07.089Z,99496.55
2023-05-17T15:03:35.439Z,99497.11
2023-05-17T15:06:06.960Z,99495.09
2023-05-17T15:08:36.067Z,99496.71
2023-05-17T15:11:03.727Z,99493.91
2023-05-17T15:13:31.092Z,99488.16
2023-05-17T15:15:59.332Z,99491.44
2023-05-17T15:18:27.333Z,99487.70
2023-05-17T15:20:54.991Z,99488.91
2023-05-17T15:23:22.400Z,99488.54
2023-05-17T15:25:50.309Z,99483.77
2023-05-17T15:28:20.329Z,99485.99
2023-05-17T15:30:48.196Z,99481.98
2023-05-17T15:33:16.265Z,99482.29
2023-05-17T15:35:45.085Z,99485.17
2023-05-17T15:38:13.087Z,99486.30
2023-05-17T15:40:40.397Z,99488.30
2023-05-17T15:43:07.880Z,99488.96
2023-05-17T15:45:35.702Z,99489.17
2023-05-17T15:48:03.807Z,99490.29
2023-05-17T15:50:31.751Z,99492.95
2023-05-17T15:53:01.757Z,99494.73
2023-05-17T15:55:30.366Z,99497.40
2023-05-17T15:57:58.312Z,99496.98
2023-05-17T16:00:25.917Z,99496.13
2023-05-17T16:02:53.765Z,99494.99
2023-05-17T16:05:21.810Z,99496.33
2023-05-17T16:07:49.365Z,99493.91
2023-05-17T16:10:17.850Z,99498.85
2023-05-17T16:12:47.660Z,99501.62
2023-05-17T16:15:15.563Z,99503.65
2023-05-17T16:17:43.457Z,99502.14
2023-05-17T16:20:12.334Z,99502.38
2023-05-17T16:22:43.831Z,99505.39
2023-05-17T16:25:13.296Z,99509.21
2023-05-17T16:27:41.210Z,99511.48
2023-05-17T16:30:09.304Z,99511.36
2023-05-17T16:32:36.993Z,99516.41
2023-05-17T16:35:04.847Z,99515.97
2023-05-17T16:37:32.788Z,99516.71
2023-05-17T16:40:00.648Z,99521.45
2023-05-17T16:42:28.097Z,99524.39
2023-05-17T16:44:55.864Z,99524.69
2023-05-17T16:47:26.592Z,99522.50
2023-05-17T16:49:57.673Z,99529.77
2023-05-17T16:52:25.458Z,99529.31
2023-05-17T16:54:53.368Z,99529.68
2023-05-17T16:57:21.332Z,99530.60
2023-05-17T16:59:49.000Z,99531.94
2023-05-17T17:02:16.658Z,99532.78
2023-05-17T17:04:44.624Z,99528.65
2023-05-17T17:07:12.209Z,99535.61
2023-05-17T17:09:39.793Z,99536.48
2023-05-17T17:12:22.990Z,99543.39
2023-05-17T17:14:52.098Z,99546.12
2023-05-17T17:17:19.395Z,99550.68
2023-05-17T17:19:46.975Z,99549.43
2023-05-17T17:22:16.609Z,99551.67
2023-05-17T17:24:44.773Z,99548.58
2023-05-17T17:27:12.321Z,99551.48
2023-05-17T17:29:39.975Z,99551.94
2023-05-17T17:32:08.786Z,99553.04
2023-05-17T17:34:36.448Z,99553.85
2023-05-17T17:37:04.194Z,99558.80
2023-05-17T17:39:32.368Z,99557.20
2023-05-17T17:42:00.446Z,99560.84
2023-05-17T17:44:28.478Z,99559.77
2023-05-17T17:46:56.537Z,99562.19
2023-05-17T17:49:24.563Z,99562.35
2023-05-17T17:51:52.636Z,99558.26
2023-05-17T17:54:20.905Z,99556.00
2023-05-17T17:56:48.762Z,99560.52
2023-05-17T17:59:17.347Z,99560.52
2023-05-17T18:01:45.200Z,99562.83
2023-05-17T18:04:14.840Z,99564.27
2023-05-17T18:06:44.219Z,99567.38
2023-05-17T18:09:11.991Z,99568.19
2023-05-17T18:11:39.751Z,99565.11
2023-05-17T18:14:09.097Z,99566.79
2023-05-17T18:16:36.828Z,99564.56
2023-05-17T18:19:04.829Z,99561.34
2023-05-17T18:21:32.956Z,99559.64
2023-05-17T18:24:00.824Z,99563.55
2023-05-17T18:26:28.597Z,99565.79
2023-05-17T18:28:56.249Z,99564.92
2023-05-17T18:31:23.701Z,99561.69
2023-05-17T18:33:54.278Z,99562.48
2023-05-17T18:36:23.736Z,99561.20
2023-05-17T18:38:52.755Z,99564.27
2023-05-17T18:41:20.266Z,99562.90
2023-05-17T18:43:48.152Z,99562.23
2023-05-17T18:46:15.760Z,99563.45
2023-05-17T18:48:43.582Z,99564.05
2023-05-17T18:51:12.625Z,99563.60
2023-05-17T18:53:40.057Z,99562.33
2023-05-17T18:56:07.792Z,99565.05
2023-05-17T18:58:35.458Z,99559.46
2023-05-17T19:01:03.294Z,99560.70
2023-05-17T19:03:31.532Z,99558.69
2023-05-17T19:05:59.601Z,99560.52
2023-05-17T19:08:28.255Z,99558.39
2023-05-17T19:10:56.045Z,99557.45
2023-05-17T19:13:23.708Z,99555.89
2023-05-17T19:15:53.019Z,99550.58
2023-05-17T19:18:21.070Z,99551.41
2023-05-17T19:20:48.607Z,99555.67
2023-05-17T19:23:16.274Z,99553.26
2023-05-17T19:25:43.930Z,99555.52
2023-05-17T19:28:11.812Z,99548.89
2023-05-17T19:30:39.779Z,99548.21
2023-05-17T19:33:07.615Z,99547.73
2023-05-17T19:35:39.722Z,99548.91
2023-05-17T19:38:07.570Z,99549.42
2023-05-17T19:40:35.657Z,99549.86
2023-05-17T19:43:03.299Z,99550.83
2023-05-17T19:45:31.237Z,99552.20
2023-05-17T19:47:58.976Z,99545.65
2023-05-17T19:50:26.874Z,99549.88
2023-05-17T19:52:54.999Z,99549.00
2023-05-17T19:55:23.766Z,99551.50
2023-05-17T19:57:51.722Z,99548.02
2023-05-17T20:00:21.126Z,99548.31
2023-05-17T20:02:48.851Z,99551.95
2023-05-17T20:05:17.798Z,99551.41
2023-05-17T20:07:46.116Z,99551.08
2023-05-17T20:10:13.648Z,99552.56
2023-05-17T20:12:42.199Z,99551.21
2023-05-17T20:15:10.823Z,99548.95
2023-05-17T20:17:40.322Z,99549.55
2023-05-17T20:20:09.481Z,99549.98
2023-05-17T20:22:38.274Z,99549.23
2023-05-17T20:25:06.439Z,99552.02
2023-05-17T20:27:34.303Z,99550.61
2023-05-17T20:30:02.180Z,99553.73
2023-05-17T20:32:29.975Z,99553.31
2023-05-17T20:34:59.648Z,99553.30
2023-05-17T20:37:27.169Z,99555.92
2023-05-17T20:39:57.705Z,99560.45
2023-05-17T20:42:26.824Z,99559.58
2023-05-17T20:44:55.180Z,99558.69
2023-05-17T20:47:22.878Z,99557.23
2023-05-17T20:49:50.732Z,99558.23
2023-05-17T20:52:27.796Z,99553.78
2023-05-17T20:55:08.049Z,99554.86
2023-05-17T20:57:36.143Z,99554.52
2023-05-17T21:00:05.717Z,99552.19
2023-05-17T21:02:33.633Z,99552.73
2023-05-17T21:05:01.492Z,99552.86
2023-05-17T21:07:30.478Z,99553.33
2023-05-17T21:09:58.355Z,99551.77
2023-05-17T21:12:26.015Z,99548.67
2023-05-17T21:15:07.837Z,99553.86
2023-05-17T21:17:41.549Z,99549.70
2023-05-17T21:20:11.514Z,99548.45
2023-05-17T21:22:39.083Z,99547.76
2023-05-17T21:25:07.489Z,99546.21
2023-05-17T21:27:35.360Z,99547.81
2023-05-17T21:30:02.808Z,99549.67
2023-05-17T21:32:31.098Z,99552.15
2023-05-17T21:35:00.065Z,99547.48
2023-05-17T21:37:27.710Z,99546.66
2023-05-17T21:39:55.579Z,99548.30
2023-05-17T21:42:23.261Z,99546.89
2023-05-17T21:44:51.103Z,99547.23
2023-05-17T21:47:18.866Z,99545.77
2023-05-17T21:49:46.427Z,99542.27
2023-05-17T21:52:14.098Z,99542.58
2023-05-17T21:54:41.747Z,99543.17
2023-05-17T21:57:09.306Z,99536.34
2023-05-17T21:59:37.100Z,99535.77
2023-05-17T22:02:04.856Z,99536.35
2023-05-17T22:04:32.496Z,99534.84
2023-05-17T22:06:59.960Z,99531.50
2023-05-17T22:09:27.922Z,99529.05
2023-05-17T22:11:59.094Z,99527.76
2023-05-17T22:14:33.485Z,99527.70
2023-05-17T22:17:01.276Z,99524.57
2023-05-17T22:19:30.708Z,99522.65
2023-05-17T22:21:58.420Z,99518.03
2023-05-17T22:24:25.974Z,99517.55
2023-05-17T22:26:53.635Z,99517.86
2023-05-17T22:29:21.292Z,99516.77
2023-05-17T22:31:50.425Z,99520.19
2023-05-17T22:34:19.178Z,99519.97
2023-05-17T22:36:46.864Z,99526.67
2023-05-17T22:39:14.602Z,99523.59
2023-05-17T22:41:42.372Z,99527.31
2023-05-17T22:44:10.247Z,99526.79
2023-05-17T22:46:38.954Z,99524.55
2023-05-17T22:49:06.508Z,99526.89
2023-05-17T22:51:35.752Z,99529.27
2023-05-17T22:54:03.601Z,99534.95
2023-05-17T22:56:31.043Z,99531.85
2023-05-17T22:58:58.868Z,99531.45
2023-05-17T23:01:26.839Z,99532.95
2023-05-17T23:03:54.746Z,99530.71
2023-05-17T23:06:22.310Z,99529.48
2023-05-17T23:08:50.132Z,99531.54
2023-05-17T23:11:18.405Z,99536.30
2023-05-17T23:13:46.166Z,99535.89
2023-05-17T23:16:14.470Z,99538.52
2023-05-17T23:18:42.055Z,99538.66
2023-05-17T23:21:09.969Z,99537.17
2023-05-17T23:23:38.348Z,99541.35
2023-05-17T23:26:06.420Z,99541.06
2023-05-17T23:28:34.009Z,99541.93
2023-05-17T23:31:02.624Z,99542.09
2023-05-17T23:33:31.610Z,99540.23
2023-05-17T23:35:59.240Z,99541.11
2023-05-17T23:38:26.702Z,99541.73
2023-05-17T23:40:54.305Z,99542.54
2023-05-17T23:43:21.817Z,99542.26
2023-05-17T23:45:49.648Z,99542.40
2023-05-17T23:48:20.939Z,99542.60
2023-05-17T23:50:48.563Z,99546.13
2023-05-17T23:53:18.795Z,99545.24
2023-05-17T23:55:46.894Z,99546.13
2023-05-17T23:58:14.955Z,99544.57
